sensor_id;sensor_type;location;lat;lon;timestamp;P1;durP1;ratioP1;P2;durP2;ratioP2
62151;SDS011;48139;47.474;19.034;2022-12-20T04:49:46;39.92;;;20.88;;
62151;SDS011;48139;47.474;19.034;2022-12-20T04:52:49;40.95;;;22.65;;
62151;SDS011;48139;47.474;19.034;2022-12-20T04:56:10;43.53;;;20.15;;
62151;SDS011;48139;47.474;19.034;2022-12-20T04:59:14;53.78;;;29.23;;
62151;SDS011;48139;47.474;19.034;2022-12-20T05:02:16;41.42;;;21.70;;
62151;SDS011;48139;47.474;19.034;2022-12-20T05:05:20;39.83;;;22.75;;
62151;SDS011;48139;47.474;19.034;2022-12-20T05:08:23;41.37;;;21.25;;
62151;SDS011;48139;47.474;19.034;2022-12-20T05:11:26;47.33;;;23.27;;
62151;SDS011;48139;47.474;19.034;2022-12-20T05:14:28;36.35;;;20.27;;
62151;SDS011;48139;47.474;19.034;2022-12-20T05:17:31;35.20;;;16.77;;
62151;SDS011;48139;47.474;19.034;2022-12-20T05:20:35;37.22;;;20.65;;
62151;SDS011;48139;47.474;19.034;2022-12-20T05:23:38;37.47;;;20.83;;
62151;SDS011;48139;47.474;19.034;2022-12-20T05:26:59;30.92;;;16.92;;
62151;SDS011;48139;47.474;19.034;2022-12-20T05:30:03;36.17;;;19.70;;
62151;SDS011;48139;47.474;19.034;2022-12-20T05:33:06;45.85;;;21.77;;
62151;SDS011;48139;47.474;19.034;2022-12-20T05:36:09;35.33;;;20.77;;
62151;SDS011;48139;47.474;19.034;2022-12-20T05:39:11;39.87;;;17.87;;
62151;SDS011;48139;47.474;19.034;2022-12-20T05:42:14;38.95;;;22.58;;
62151;SDS011;48139;47.474;19.034;2022-12-20T05:45:17;29.23;;;18.63;;
62151;SDS011;48139;47.474;19.034;2022-12-20T05:48:20;33.92;;;16.65;;
62151;SDS011;48139;47.474;19.034;2022-12-20T05:51:23;36.65;;;21.87;;
62151;SDS011;48139;47.474;19.034;2022-12-20T05:54:26;36.10;;;18.00;;
62151;SDS011;48139;47.474;19.034;2022-12-20T05:57:29;40.03;;;20.00;;
62151;SDS011;48139;47.474;19.034;2022-12-20T06:00:33;38.05;;;19.95;;
62151;SDS011;48139;47.474;19.034;2022-12-20T06:03:37;32.67;;;18.63;;
62151;SDS011;48139;47.474;19.034;2022-12-20T06:06:40;36.25;;;18.98;;
62151;SDS011;48139;47.474;19.034;2022-12-20T06:09:44;33.75;;;17.37;;
62151;SDS011;48139;47.474;19.034;2022-12-20T06:12:47;38.47;;;20.83;;
62151;SDS011;48139;47.474;19.034;2022-12-20T06:15:50;30.85;;;17.10;;
62151;SDS011;48139;47.474;19.034;2022-12-20T06:18:52;32.90;;;18.50;;
62151;SDS011;48139;47.474;19.034;2022-12-20T06:21:55;35.85;;;18.98;;
62151;SDS011;48139;47.474;19.034;2022-12-20T06:25:00;37.08;;;19.67;;
62151;SDS011;48139;47.474;19.034;2022-12-20T06:28:05;34.47;;;17.85;;
62151;SDS011;48139;47.474;19.034;2022-12-20T06:34:12;33.97;;;18.30;;
62151;SDS011;48139;47.474;19.034;2022-12-20T06:37:15;32.63;;;16.55;;
62151;SDS011;48139;47.474;19.034;2022-12-20T06:40:19;34.50;;;16.98;;
62151;SDS011;48139;47.474;19.034;2022-12-20T06:43:21;36.42;;;19.23;;
62151;SDS011;48139;47.474;19.034;2022-12-20T06:46:24;37.92;;;18.67;;
62151;SDS011;48139;47.474;19.034;2022-12-20T06:49:29;32.72;;;18.70;;
62151;SDS011;48139;47.474;19.034;2022-12-20T06:52:32;36.50;;;18.60;;
62151;SDS011;48139;47.474;19.034;2022-12-20T06:55:35;39.22;;;20.20;;
62151;SDS011;48139;47.474;19.034;2022-12-20T06:58:38;42.75;;;20.75;;
62151;SDS011;48139;47.474;19.034;2022-12-20T07:01:40;35.47;;;18.02;;
62151;SDS011;48139;47.474;19.034;2022-12-20T07:04:43;38.35;;;21.02;;
62151;SDS011;48139;47.474;19.034;2022-12-20T07:07:46;37.53;;;19.80;;
62151;SDS011;48139;47.474;19.034;2022-12-20T07:10:50;31.50;;;19.52;;
62151;SDS011;48139;47.474;19.034;2022-12-20T07:13:58;38.03;;;20.80;;
62151;SDS011;48139;47.474;19.034;2022-12-20T07:17:02;32.07;;;17.57;;
62151;SDS011;48139;47.474;19.034;2022-12-20T07:23:15;38.58;;;19.15;;
62151;SDS011;48139;47.474;19.034;2022-12-20T07:26:17;30.83;;;17.83;;
62151;SDS011;48139;47.474;19.034;2022-12-20T07:29:20;35.25;;;16.73;;
62151;SDS011;48139;47.474;19.034;2022-12-20T07:32:22;42.67;;;18.23;;
62151;SDS011;48139;47.474;19.034;2022-12-20T07:35:27;27.87;;;15.63;;
62151;SDS011;48139;47.474;19.034;2022-12-20T07:38:30;32.40;;;18.00;;
62151;SDS011;48139;47.474;19.034;2022-12-20T07:41:32;34.63;;;19.33;;
62151;SDS011;48139;47.474;19.034;2022-12-20T07:44:37;38.50;;;19.75;;
62151;SDS011;48139;47.474;19.034;2022-12-20T07:47:40;34.17;;;20.50;;
62151;SDS011;48139;47.474;19.034;2022-12-20T07:50:42;32.53;;;18.17;;
62151;SDS011;48139;47.474;19.034;2022-12-20T07:53:49;32.63;;;19.05;;
62151;SDS011;48139;47.474;19.034;2022-12-20T07:57:05;34.95;;;16.92;;
62151;SDS011;48139;47.474;19.034;2022-12-20T08:00:14;30.67;;;17.08;;
62151;SDS011;48139;47.474;19.034;2022-12-20T08:03:18;29.55;;;16.45;;
62151;SDS011;48139;47.474;19.034;2022-12-20T08:06:24;26.70;;;17.33;;
62151;SDS011;48139;47.474;19.034;2022-12-20T08:09:28;36.03;;;19.00;;
62151;SDS011;48139;47.474;19.034;2022-12-20T08:12:36;32.97;;;17.45;;
62151;SDS011;48139;47.474;19.034;2022-12-20T08:18:42;33.33;;;17.25;;
62151;SDS011;48139;47.474;19.034;2022-12-20T08:24:49;28.62;;;16.15;;
62151;SDS011;48139;47.474;19.034;2022-12-20T08:27:51;33.07;;;16.90;;
62151;SDS011;48139;47.474;19.034;2022-12-20T08:31:03;26.55;;;17.00;;
62151;SDS011;48139;47.474;19.034;2022-12-20T08:34:09;35.38;;;14.38;;
62151;SDS011;48139;47.474;19.034;2022-12-20T08:37:14;26.92;;;13.65;;
62151;SDS011;48139;47.474;19.034;2022-12-20T08:40:19;36.13;;;18.02;;
62151;SDS011;48139;47.474;19.034;2022-12-20T08:43:22;39.75;;;16.55;;
62151;SDS011;48139;47.474;19.034;2022-12-20T08:46:25;26.60;;;15.05;;
62151;SDS011;48139;47.474;19.034;2022-12-20T08:49:28;23.12;;;13.77;;
62151;SDS011;48139;47.474;19.034;2022-12-20T08:52:31;27.40;;;13.77;;
62151;SDS011;48139;47.474;19.034;2022-12-20T08:55:34;27.27;;;13.48;;
62151;SDS011;48139;47.474;19.034;2022-12-20T08:58:37;32.20;;;14.70;;
62151;SDS011;48139;47.474;19.034;2022-12-20T09:01:40;31.55;;;17.02;;
62151;SDS011;48139;47.474;19.034;2022-12-20T09:04:43;27.92;;;14.45;;
62151;SDS011;48139;47.474;19.034;2022-12-20T09:07:46;24.90;;;13.57;;
62151;SDS011;48139;47.474;19.034;2022-12-20T09:10:49;33.90;;;14.23;;
62151;SDS011;48139;47.474;19.034;2022-12-20T09:13:54;28.02;;;15.68;;
62151;SDS011;48139;47.474;19.034;2022-12-20T09:16:58;28.23;;;14.43;;
62151;SDS011;48139;47.474;19.034;2022-12-20T09:20:01;30.48;;;16.67;;
62151;SDS011;48139;47.474;19.034;2022-12-20T09:23:04;31.00;;;15.73;;
62151;SDS011;48139;47.474;19.034;2022-12-20T09:26:09;27.00;;;16.02;;
62151;SDS011;48139;47.474;19.034;2022-12-20T09:29:13;21.85;;;11.77;;
62151;SDS011;48139;47.474;19.034;2022-12-20T09:32:23;29.52;;;14.87;;
62151;SDS011;48139;47.474;19.034;2022-12-20T09:35:26;25.92;;;14.65;;
62151;SDS011;48139;47.474;19.034;2022-12-20T09:38:29;27.73;;;13.80;;
62151;SDS011;48139;47.474;19.034;2022-12-20T09:41:36;35.63;;;17.08;;
62151;SDS011;48139;47.474;19.034;2022-12-20T09:44:40;28.62;;;13.60;;
62151;SDS011;48139;47.474;19.034;2022-12-20T09:47:44;27.35;;;13.23;;
62151;SDS011;48139;47.474;19.034;2022-12-20T10:00:43;31.23;;;14.30;;
62151;SDS011;48139;47.474;19.034;2022-12-20T10:03:56;25.10;;;14.30;;
62151;SDS011;48139;47.474;19.034;2022-12-20T10:07:05;24.55;;;13.73;;
62151;SDS011;48139;47.474;19.034;2022-12-20T10:10:20;26.73;;;14.05;;
62151;SDS011;48139;47.474;19.034;2022-12-20T10:13:34;29.08;;;14.38;;
62151;SDS011;48139;47.474;19.034;2022-12-20T10:16:49;26.50;;;14.70;;
62151;SDS011;48139;47.474;19.034;2022-12-20T10:26:37;30.08;;;15.20;;
62151;SDS011;48139;47.474;19.034;2022-12-20T10:29:40;25.45;;;13.50;;
62151;SDS011;48139;47.474;19.034;2022-12-20T10:32:45;26.80;;;15.00;;
62151;SDS011;48139;47.474;19.034;2022-12-20T10:35:50;28.33;;;11.75;;
62151;SDS011;48139;47.474;19.034;2022-12-20T10:38:57;22.83;;;12.52;;
62151;SDS011;48139;47.474;19.034;2022-12-20T10:42:01;28.02;;;15.30;;
62151;SDS011;48139;47.474;19.034;2022-12-20T10:48:34;26.08;;;13.35;;
62151;SDS011;48139;47.474;19.034;2022-12-20T10:51:41;29.37;;;14.18;;
62151;SDS011;48139;47.474;19.034;2022-12-20T10:54:54;24.02;;;12.43;;
62151;SDS011;48139;47.474;19.034;2022-12-20T10:57:56;26.42;;;12.88;;
62151;SDS011;48139;47.474;19.034;2022-12-20T11:01:05;27.45;;;14.10;;
62151;SDS011;48139;47.474;19.034;2022-12-20T11:04:23;28.38;;;13.70;;
62151;SDS011;48139;47.474;19.034;2022-12-20T11:07:28;30.83;;;15.00;;
62151;SDS011;48139;47.474;19.034;2022-12-20T11:10:33;22.13;;;12.45;;
62151;SDS011;48139;47.474;19.034;2022-12-20T11:13:36;28.62;;;14.98;;
62151;SDS011;48139;47.474;19.034;2022-12-20T11:16:39;26.85;;;13.20;;
62151;SDS011;48139;47.474;19.034;2022-12-20T11:22:53;26.33;;;15.10;;
62151;SDS011;48139;47.474;19.034;2022-12-20T11:26:14;23.42;;;12.80;;
62151;SDS011;48139;47.474;19.034;2022-12-20T11:33:03;24.95;;;13.43;;
62151;SDS011;48139;47.474;19.034;2022-12-20T11:36:16;28.98;;;13.38;;
62151;SDS011;48139;47.474;19.034;2022-12-20T11:39:42;22.83;;;12.55;;
62151;SDS011;48139;47.474;19.034;2022-12-20T11:56:43;26.58;;;14.30;;
62151;SDS011;48139;47.474;19.034;2022-12-20T11:59:48;25.58;;;13.85;;
62151;SDS011;48139;47.474;19.034;2022-12-20T12:06:45;24.90;;;11.43;;
62151;SDS011;48139;47.474;19.034;2022-12-20T12:13:26;26.27;;;13.00;;
62151;SDS011;48139;47.474;19.034;2022-12-20T12:16:38;25.08;;;13.25;;
62151;SDS011;48139;47.474;19.034;2022-12-20T12:19:47;23.70;;;11.95;;
62151;SDS011;48139;47.474;19.034;2022-12-20T12:22:54;51.45;;;15.23;;
62151;SDS011;48139;47.474;19.034;2022-12-20T12:26:09;24.17;;;13.43;;
62151;SDS011;48139;47.474;19.034;2022-12-20T12:29:15;26.42;;;14.13;;
62151;SDS011;48139;47.474;19.034;2022-12-20T12:32:33;23.90;;;12.65;;
62151;SDS011;48139;47.474;19.034;2022-12-20T12:36:02;27.37;;;14.68;;
62151;SDS011;48139;47.474;19.034;2022-12-20T12:46:25;28.65;;;14.10;;
62151;SDS011;48139;47.474;19.034;2022-12-20T12:49:30;30.48;;;14.98;;
62151;SDS011;48139;47.474;19.034;2022-12-20T12:52:42;28.87;;;13.90;;
62151;SDS011;48139;47.474;19.034;2022-12-20T12:55:50;27.50;;;14.43;;
62151;SDS011;48139;47.474;19.034;2022-12-20T12:59:19;26.23;;;14.00;;
62151;SDS011;48139;47.474;19.034;2022-12-20T13:02:48;29.50;;;13.70;;
62151;SDS011;48139;47.474;19.034;2022-12-20T13:05:52;21.40;;;11.35;;
62151;SDS011;48139;47.474;19.034;2022-12-20T13:11:58;25.83;;;13.33;;
62151;SDS011;48139;47.474;19.034;2022-12-20T13:18:22;25.00;;;12.35;;
62151;SDS011;48139;47.474;19.034;2022-12-20T13:21:30;44.47;;;15.07;;
62151;SDS011;48139;47.474;19.034;2022-12-20T13:27:43;24.90;;;13.25;;
62151;SDS011;48139;47.474;19.034;2022-12-20T13:30:47;28.40;;;14.25;;
62151;SDS011;48139;47.474;19.034;2022-12-20T13:34:33;24.30;;;13.88;;
62151;SDS011;48139;47.474;19.034;2022-12-20T13:41:10;26.67;;;14.98;;
62151;SDS011;48139;47.474;19.034;2022-12-20T13:44:35;26.40;;;13.52;;
62151;SDS011;48139;47.474;19.034;2022-12-20T13:47:49;27.73;;;14.93;;
62151;SDS011;48139;47.474;19.034;2022-12-20T13:51:15;24.48;;;13.55;;
62151;SDS011;48139;47.474;19.034;2022-12-20T13:54:19;28.35;;;16.58;;
62151;SDS011;48139;47.474;19.034;2022-12-20T13:57:33;25.00;;;13.77;;
62151;SDS011;48139;47.474;19.034;2022-12-20T14:00:45;30.33;;;16.15;;
62151;SDS011;48139;47.474;19.034;2022-12-20T14:03:49;24.70;;;14.30;;
62151;SDS011;48139;47.474;19.034;2022-12-20T14:06:53;24.30;;;12.63;;
62151;SDS011;48139;47.474;19.034;2022-12-20T14:10:00;26.20;;;14.20;;
62151;SDS011;48139;47.474;19.034;2022-12-20T14:13:19;29.73;;;16.02;;
62151;SDS011;48139;47.474;19.034;2022-12-20T14:16:27;33.20;;;15.93;;
62151;SDS011;48139;47.474;19.034;2022-12-20T14:19:32;25.12;;;13.20;;
62151;SDS011;48139;47.474;19.034;2022-12-20T14:22:35;30.62;;;14.45;;
62151;SDS011;48139;47.474;19.034;2022-12-20T14:25:42;25.58;;;13.55;;
62151;SDS011;48139;47.474;19.034;2022-12-20T14:28:51;30.02;;;14.68;;
62151;SDS011;48139;47.474;19.034;2022-12-20T14:31:55;24.63;;;12.40;;
62151;SDS011;48139;47.474;19.034;2022-12-20T14:34:58;22.23;;;13.30;;
62151;SDS011;48139;47.474;19.034;2022-12-20T14:38:01;22.33;;;11.43;;
62151;SDS011;48139;47.474;19.034;2022-12-20T14:41:26;23.70;;;15.70;;
62151;SDS011;48139;47.474;19.034;2022-12-20T14:44:36;31.85;;;14.55;;
62151;SDS011;48139;47.474;19.034;2022-12-20T14:47:50;25.70;;;13.68;;
62151;SDS011;48139;47.474;19.034;2022-12-20T14:50:58;26.35;;;14.48;;
62151;SDS011;48139;47.474;19.034;2022-12-20T14:54:00;25.17;;;14.20;;
62151;SDS011;48139;47.474;19.034;2022-12-20T14:57:09;25.10;;;14.87;;
62151;SDS011;48139;47.474;19.034;2022-12-20T15:03:18;28.12;;;14.75;;
62151;SDS011;48139;47.474;19.034;2022-12-20T15:06:32;32.70;;;17.98;;
62151;SDS011;48139;47.474;19.034;2022-12-20T15:09:45;29.52;;;15.93;;
62151;SDS011;48139;47.474;19.034;2022-12-20T15:12:48;32.83;;;16.58;;
62151;SDS011;48139;47.474;19.034;2022-12-20T15:15:50;32.88;;;18.77;;
62151;SDS011;48139;47.474;19.034;2022-12-20T15:18:54;37.03;;;19.33;;
62151;SDS011;48139;47.474;19.034;2022-12-20T15:21:58;27.35;;;17.23;;
62151;SDS011;48139;47.474;19.034;2022-12-20T15:25:04;35.35;;;20.02;;
62151;SDS011;48139;47.474;19.034;2022-12-20T15:28:18;31.33;;;18.25;;
62151;SDS011;48139;47.474;19.034;2022-12-20T15:31:23;31.50;;;17.83;;
62151;SDS011;48139;47.474;19.034;2022-12-20T15:34:36;39.53;;;19.87;;
62151;SDS011;48139;47.474;19.034;2022-12-20T15:37:40;41.13;;;19.83;;
62151;SDS011;48139;47.474;19.034;2022-12-20T15:40:43;35.08;;;17.30;;
62151;SDS011;48139;47.474;19.034;2022-12-20T15:43:53;33.17;;;19.00;;
62151;SDS011;48139;47.474;19.034;2022-12-20T15:46:57;31.45;;;19.62;;
62151;SDS011;48139;47.474;19.034;2022-12-20T15:50:00;31.33;;;18.50;;
62151;SDS011;48139;47.474;19.034;2022-12-20T15:53:03;35.65;;;19.85;;
62151;SDS011;48139;47.474;19.034;2022-12-20T15:56:07;38.50;;;22.37;;
62151;SDS011;48139;47.474;19.034;2022-12-20T15:59:19;35.17;;;20.90;;
62151;SDS011;48139;47.474;19.034;2022-12-20T16:02:41;39.67;;;21.15;;
62151;SDS011;48139;47.474;19.034;2022-12-20T16:05:45;32.33;;;18.05;;
62151;SDS011;48139;47.474;19.034;2022-12-20T16:08:49;38.22;;;17.62;;
62151;SDS011;48139;47.474;19.034;2022-12-20T16:11:52;35.05;;;20.88;;
62151;SDS011;48139;47.474;19.034;2022-12-20T16:14:54;27.48;;;16.35;;
62151;SDS011;48139;47.474;19.034;2022-12-20T16:17:57;30.40;;;18.42;;
62151;SDS011;48139;47.474;19.034;2022-12-20T16:21:02;41.28;;;20.58;;
62151;SDS011;48139;47.474;19.034;2022-12-20T16:24:05;37.20;;;17.77;;
